createdAt,value
2019-03-17T00:01:29.008Z,5.40
2019-03-17T00:03:58.768Z,4.63
2019-03-17T00:06:28.574Z,5.23
2019-03-17T00:08:58.746Z,5.40
2019-03-17T00:11:28.677Z,5.87
2019-03-17T00:13:58.713Z,4.73
2019-03-17T00:16:28.586Z,4.93
2019-03-17T00:30:36.264Z,5.37
2019-03-17T00:33:06.194Z,5.13
2019-03-17T00:35:36.031Z,6.03
2019-03-17T00:38:05.900Z,5.20
2019-03-17T00:40:35.930Z,5.90
2019-03-17T00:43:05.974Z,7.67
2019-03-17T00:45:35.935Z,6.23
2019-03-17T00:48:05.762Z,5.70
2019-03-17T00:50:35.526Z,5.53
2019-03-17T00:53:05.353Z,6.43
2019-03-17T00:55:35.178Z,5.40
2019-03-17T00:58:04.980Z,4.77
2019-03-17T01:00:34.898Z,4.80
2019-03-17T01:03:04.720Z,4.43
2019-03-17T01:09:07.232Z,4.60
2019-03-17T01:11:37.295Z,4.03
2019-03-17T01:14:07.163Z,4.27
2019-03-17T01:16:37.036Z,4.27
2019-03-17T01:19:06.880Z,3.90
2019-03-17T01:21:36.832Z,4.47
2019-03-17T01:24:10.440Z,6.03
2019-03-17T01:26:43.554Z,4.57
2019-03-17T01:29:16.497Z,3.63
2019-03-17T01:31:46.412Z,3.87
2019-03-17T01:38:17.976Z,3.67
2019-03-17T01:40:47.933Z,3.83
2019-03-17T01:43:17.785Z,4.13
2019-03-17T01:45:47.740Z,4.33
2019-03-17T01:48:17.509Z,4.07
2019-03-17T01:50:47.406Z,4.50
2019-03-17T01:53:17.263Z,3.80
2019-03-17T01:55:47.102Z,3.73
2019-03-17T01:58:16.914Z,4.33
2019-03-17T02:00:46.802Z,3.97
2019-03-17T02:03:16.637Z,3.80
2019-03-17T02:05:46.491Z,4.17
2019-03-17T02:08:16.333Z,3.80
2019-03-17T02:10:46.289Z,3.77
2019-03-17T02:13:16.094Z,4.60
2019-03-17T02:15:45.921Z,3.40
2019-03-17T02:18:15.678Z,3.80
2019-03-17T02:20:45.580Z,4.73
2019-03-17T02:23:15.357Z,3.60
2019-03-17T02:25:45.224Z,3.67
2019-03-17T02:28:15.101Z,3.57
2019-03-17T02:30:45.044Z,2.77
2019-03-17T02:33:15.040Z,3.73
2019-03-17T02:38:52.951Z,3.53
2019-03-17T02:41:22.760Z,3.17
2019-03-17T02:43:52.595Z,3.17
2019-03-17T02:46:22.532Z,3.33
2019-03-17T02:48:52.398Z,3.30
2019-03-17T02:54:54.824Z,3.30
2019-03-17T02:57:24.726Z,4.33
2019-03-17T02:59:54.669Z,3.40
2019-03-17T03:02:24.430Z,4.00
2019-03-17T03:04:54.311Z,3.87
2019-03-17T03:07:24.332Z,3.50
2019-03-17T03:09:54.112Z,4.00
2019-03-17T03:12:24.012Z,4.47
2019-03-17T03:14:53.913Z,4.83
2019-03-17T03:17:23.694Z,3.67
2019-03-17T03:19:53.506Z,3.90
2019-03-17T03:22:23.283Z,4.07
2019-03-17T03:24:53.102Z,4.23
2019-03-17T03:27:22.940Z,4.77
2019-03-17T03:29:52.738Z,4.07
2019-03-17T03:32:22.512Z,4.43
2019-03-17T03:34:52.285Z,3.87
2019-03-17T03:37:22.416Z,5.30
2019-03-17T03:39:52.238Z,4.13
2019-03-17T03:42:22.901Z,3.80
2019-03-17T03:44:52.770Z,4.60
2019-03-17T03:47:22.641Z,4.57
2019-03-17T03:49:52.597Z,4.03
2019-03-17T03:52:22.301Z,4.57
2019-03-17T03:54:52.119Z,4.33
2019-03-17T03:57:22.063Z,4.20
2019-03-17T03:59:51.834Z,4.57
2019-03-17T04:02:21.645Z,3.83
2019-03-17T04:04:51.524Z,4.53
2019-03-17T04:07:21.365Z,4.90
2019-03-17T04:09:51.228Z,4.80
2019-03-17T04:12:21.072Z,3.63
2019-03-17T04:14:50.895Z,4.13
2019-03-17T04:17:20.811Z,6.57
2019-03-17T04:23:50.145Z,5.13
2019-03-17T04:26:20.137Z,4.77
2019-03-17T04:28:50.008Z,4.07
2019-03-17T04:31:19.918Z,5.40
2019-03-17T04:33:49.817Z,4.90
2019-03-17T04:36:19.814Z,4.60
2019-03-17T04:38:49.641Z,3.90
2019-03-17T04:41:19.621Z,4.93
2019-03-17T04:43:49.565Z,3.93
2019-03-17T04:46:19.549Z,5.07
2019-03-17T04:48:49.365Z,5.67
2019-03-17T04:51:19.327Z,4.60
2019-03-17T04:53:49.182Z,4.70
2019-03-17T04:56:18.923Z,3.10
2019-03-17T04:58:48.677Z,2.40
2019-03-17T05:01:21.942Z,2.80
2019-03-17T05:03:50.468Z,3.23
2019-03-17T05:06:20.283Z,2.63
2019-03-17T05:08:50.183Z,2.23
2019-03-17T05:11:20.035Z,2.83
2019-03-17T05:13:49.917Z,2.00
2019-03-17T05:16:19.814Z,2.00
2019-03-17T05:18:49.647Z,2.47
2019-03-17T05:25:01.069Z,1.13
2019-03-17T05:27:30.936Z,2.40
2019-03-17T05:30:00.642Z,1.00
2019-03-17T05:32:30.468Z,1.13
2019-03-17T05:35:00.376Z,1.33
2019-03-17T05:37:30.155Z,2.10
2019-03-17T05:40:00.113Z,1.43
2019-03-17T05:42:30.193Z,2.00
2019-03-17T05:45:00.407Z,1.47
2019-03-17T05:47:30.552Z,1.67
2019-03-17T05:50:00.480Z,1.50
2019-03-17T05:52:30.323Z,1.27
2019-03-17T05:55:00.423Z,1.50
2019-03-17T05:57:39.281Z,3.03
2019-03-17T06:00:11.080Z,2.03
2019-03-17T06:02:41.009Z,1.80
2019-03-17T06:05:10.872Z,1.47
2019-03-17T06:07:45.311Z,1.93
2019-03-17T06:10:15.050Z,2.10
2019-03-17T06:12:45.211Z,1.90
2019-03-17T06:15:15.052Z,1.27
2019-03-17T06:17:44.886Z,1.83
2019-03-17T06:20:14.754Z,1.03
2019-03-17T06:22:45.403Z,1.30
2019-03-17T06:25:15.193Z,1.90
2019-03-17T06:27:44.902Z,1.70
2019-03-17T06:30:14.774Z,1.23
2019-03-17T06:32:44.564Z,1.57
2019-03-17T06:35:14.395Z,1.50
2019-03-17T06:37:44.558Z,1.90
2019-03-17T06:40:14.499Z,1.50
2019-03-17T06:42:44.502Z,1.30
2019-03-17T06:45:14.298Z,2.13
2019-03-17T06:47:44.078Z,2.00
2019-03-17T06:50:14.010Z,1.60
2019-03-17T06:52:43.933Z,1.47
2019-03-17T06:55:14.021Z,1.97
2019-03-17T06:57:43.803Z,1.43
2019-03-17T07:00:14.414Z,1.80
2019-03-17T07:02:45.206Z,1.13
2019-03-17T07:09:15.188Z,1.47
2019-03-17T07:11:45.129Z,1.50
2019-03-17T07:14:15.072Z,1.80
2019-03-17T07:16:45.023Z,1.00
2019-03-17T07:19:14.874Z,1.77
2019-03-17T07:21:44.720Z,1.47
2019-03-17T07:24:14.605Z,1.40
2019-03-17T07:26:44.782Z,1.00
2019-03-17T07:29:14.579Z,1.40
2019-03-17T07:31:44.399Z,1.97
2019-03-17T07:34:14.249Z,3.00
2019-03-17T07:36:43.995Z,3.00
2019-03-17T07:39:13.780Z,1.93
2019-03-17T07:41:43.767Z,1.60
2019-03-17T07:44:13.571Z,1.60
2019-03-17T07:46:43.813Z,1.67
2019-03-17T07:49:13.961Z,2.30
2019-03-17T07:51:43.833Z,1.90
2019-03-17T07:54:13.747Z,1.50
2019-03-17T07:56:43.631Z,2.20
2019-03-17T07:59:13.621Z,2.27
2019-03-17T08:01:43.458Z,1.83
2019-03-17T08:04:13.350Z,2.30
2019-03-17T08:06:43.130Z,2.40
2019-03-17T08:09:13.357Z,2.03
2019-03-17T08:11:43.270Z,2.60
2019-03-17T08:14:13.065Z,2.50
2019-03-17T08:16:42.871Z,2.87
2019-03-17T08:19:12.915Z,2.60
2019-03-17T08:25:24.073Z,2.70
2019-03-17T08:27:53.881Z,2.10
2019-03-17T08:30:23.672Z,2.50
2019-03-17T08:32:53.641Z,1.90
2019-03-17T08:35:23.532Z,1.93
2019-03-17T08:37:53.401Z,2.10
2019-03-17T08:40:23.331Z,1.80
2019-03-17T08:42:53.141Z,1.90
2019-03-17T08:45:22.977Z,2.23
2019-03-17T08:47:58.201Z,2.03
2019-03-17T08:50:27.786Z,1.80
2019-03-17T08:52:57.680Z,1.87
2019-03-17T08:55:27.667Z,2.03
2019-03-17T08:57:57.476Z,1.60
2019-03-17T09:00:27.261Z,1.50
2019-03-17T09:02:57.132Z,1.50
2019-03-17T09:09:35.552Z,1.43
2019-03-17T09:12:05.566Z,1.30
2019-03-17T09:14:35.688Z,1.40
2019-03-17T09:17:14.168Z,1.00
2019-03-17T09:19:36.997Z,1.60
2019-03-17T09:25:48.279Z,1.90
2019-03-17T09:28:18.073Z,1.50
2019-03-17T09:30:47.961Z,1.57
2019-03-17T09:33:17.784Z,1.60
2019-03-17T09:35:47.664Z,1.87
2019-03-17T09:38:17.634Z,1.60
2019-03-17T09:40:47.639Z,1.77
2019-03-17T09:43:17.675Z,2.40
2019-03-17T09:45:47.496Z,1.80
2019-03-17T09:48:17.416Z,1.53
2019-03-17T09:50:47.342Z,1.93
2019-03-17T09:53:17.288Z,1.93
2019-03-17T09:55:47.276Z,1.40
2019-03-17T09:58:19.375Z,1.80
2019-03-17T10:00:49.370Z,1.23
2019-03-17T10:03:19.250Z,1.60
2019-03-17T10:05:49.598Z,2.00
2019-03-17T10:08:19.832Z,1.50
2019-03-17T10:10:49.717Z,1.50
2019-03-17T10:13:19.694Z,2.50
2019-03-17T10:15:49.500Z,2.10
2019-03-17T10:18:19.245Z,1.90
2019-03-17T10:20:49.208Z,2.23
2019-03-17T10:23:19.053Z,2.23
2019-03-17T10:25:49.214Z,2.23
2019-03-17T10:28:19.268Z,2.53
2019-03-17T10:30:49.146Z,1.80
2019-03-17T10:33:18.895Z,2.00
2019-03-17T10:35:50.832Z,2.20
2019-03-17T10:38:20.740Z,2.33
2019-03-17T10:40:50.526Z,2.63
2019-03-17T10:43:20.368Z,2.23
2019-03-17T10:45:50.338Z,2.57
2019-03-17T10:48:20.414Z,1.70
2019-03-17T10:54:47.116Z,2.47
2019-03-17T10:57:16.848Z,2.23
2019-03-17T10:59:46.757Z,2.50
2019-03-17T11:02:16.632Z,2.40
2019-03-17T11:04:46.750Z,2.33
2019-03-17T11:07:18.646Z,2.50
2019-03-17T11:09:48.540Z,2.40
2019-03-17T11:12:18.363Z,2.73
2019-03-17T11:14:48.277Z,2.77
2019-03-17T11:17:18.129Z,3.33
2019-03-17T11:19:47.969Z,3.37
2019-03-17T11:22:17.806Z,3.53
2019-03-17T11:25:02.423Z,2.53
2019-03-17T11:27:32.298Z,3.00
2019-03-17T11:30:02.166Z,2.30
2019-03-17T11:32:34.906Z,2.50
2019-03-17T11:35:05.047Z,2.30
2019-03-17T11:41:09.459Z,2.43
2019-03-17T11:43:39.228Z,2.07
2019-03-17T11:46:09.180Z,2.23
2019-03-17T11:48:39.218Z,2.10
2019-03-17T11:55:00.122Z,2.20
2019-03-17T11:57:30.145Z,2.00
2019-03-17T12:00:01.058Z,1.90
2019-03-17T12:02:30.902Z,2.10
2019-03-17T12:05:00.777Z,2.13
2019-03-17T12:07:30.744Z,2.73
2019-03-17T12:10:00.889Z,2.30
2019-03-17T12:12:30.697Z,2.50
2019-03-17T12:15:00.707Z,1.87
2019-03-17T12:17:30.511Z,2.13
2019-03-17T12:20:00.512Z,2.90
2019-03-17T12:26:02.667Z,1.47
2019-03-17T12:28:32.541Z,2.30
2019-03-17T12:31:04.087Z,1.77
2019-03-17T12:33:33.939Z,2.27
2019-03-17T12:36:03.644Z,1.97
2019-03-17T12:38:33.471Z,2.23
2019-03-17T12:41:03.247Z,1.77
2019-03-17T12:43:42.351Z,6.30
2019-03-17T12:46:12.368Z,2.67
2019-03-17T12:48:42.282Z,2.30
2019-03-17T12:51:12.716Z,2.77
2019-03-17T12:53:43.802Z,2.50
2019-03-17T12:56:13.841Z,3.27
2019-03-17T12:58:44.078Z,1.90
2019-03-17T13:01:14.145Z,2.37
2019-03-17T13:03:44.182Z,2.67
2019-03-17T13:06:14.095Z,1.93
2019-03-17T13:08:43.908Z,2.27
2019-03-17T13:11:13.722Z,1.90
2019-03-17T13:13:46.506Z,2.33
2019-03-17T13:16:16.456Z,2.20
2019-03-17T13:18:46.301Z,2.43
2019-03-17T13:21:16.154Z,1.93
2019-03-17T13:23:46.153Z,2.30
2019-03-17T13:26:16.295Z,1.97
2019-03-17T13:28:46.273Z,2.00
2019-03-17T13:31:16.452Z,1.90
2019-03-17T13:33:46.409Z,2.57
2019-03-17T13:36:16.589Z,1.67
2019-03-17T13:38:46.574Z,1.87
2019-03-17T13:41:17.050Z,2.63
2019-03-17T13:43:47.531Z,1.87
2019-03-17T13:46:17.766Z,2.40
2019-03-17T13:48:49.701Z,1.93
2019-03-17T13:51:19.977Z,1.67
2019-03-17T13:53:50.339Z,2.37
2019-03-17T13:56:22.184Z,2.03
2019-03-17T13:58:52.345Z,1.77
2019-03-17T14:01:22.977Z,2.20
2019-03-17T14:03:54.928Z,2.60
2019-03-17T14:06:25.915Z,2.47
2019-03-17T14:08:57.801Z,2.67
2019-03-17T14:11:27.778Z,1.90
2019-03-17T14:13:57.842Z,1.70
2019-03-17T14:16:28.426Z,2.50
2019-03-17T14:18:58.396Z,2.67
2019-03-17T14:21:28.616Z,2.33
2019-03-17T14:23:58.738Z,2.60
2019-03-17T14:26:29.152Z,1.60
2019-03-17T14:29:00.718Z,3.93
2019-03-17T14:31:30.767Z,2.33
2019-03-17T14:34:01.039Z,2.40
2019-03-17T14:40:27.919Z,3.00
2019-03-17T14:42:58.176Z,2.10
2019-03-17T14:45:28.381Z,1.87
2019-03-17T14:47:58.543Z,1.70
2019-03-17T14:50:31.722Z,2.27
2019-03-17T14:56:39.501Z,3.17
2019-03-17T14:59:12.424Z,2.13
2019-03-17T15:01:42.389Z,1.73
2019-03-17T15:04:12.818Z,1.73
2019-03-17T15:06:43.187Z,1.70
2019-03-17T15:09:13.652Z,1.87
2019-03-17T15:11:43.936Z,2.53
2019-03-17T15:14:14.235Z,2.00
2019-03-17T15:16:44.368Z,1.97
2019-03-17T15:19:14.616Z,1.77
2019-03-17T15:25:38.319Z,1.77
2019-03-17T15:28:09.791Z,2.47
2019-03-17T15:30:39.752Z,1.87
2019-03-17T15:33:09.845Z,2.17
2019-03-17T15:35:39.989Z,2.20
2019-03-17T15:38:09.908Z,2.40
2019-03-17T15:40:41.050Z,1.90
2019-03-17T15:43:11.356Z,2.13
2019-03-17T15:45:42.356Z,2.00
2019-03-17T15:48:19.353Z,2.37
2019-03-17T15:50:49.277Z,1.80
2019-03-17T15:53:20.424Z,2.33
2019-03-17T15:55:50.653Z,2.50
2019-03-17T15:58:25.410Z,1.60
2019-03-17T16:00:55.952Z,2.67
2019-03-17T16:03:25.892Z,2.67
2019-03-17T16:05:55.984Z,3.30
2019-03-17T16:08:26.122Z,2.27
2019-03-17T16:10:56.715Z,2.27
2019-03-17T16:13:26.697Z,1.90
2019-03-17T16:15:58.160Z,2.47
2019-03-17T16:18:28.392Z,2.03
2019-03-17T16:21:00.807Z,2.00
2019-03-17T16:31:26.666Z,2.60
2019-03-17T16:34:00.767Z,2.93
2019-03-17T16:36:31.399Z,3.43
2019-03-17T16:39:02.167Z,1.90
2019-03-17T16:41:42.863Z,2.83
2019-03-17T16:44:05.048Z,3.30
2019-03-17T16:46:35.183Z,2.10
2019-03-17T16:49:05.410Z,2.57
2019-03-17T16:51:39.706Z,3.03
2019-03-17T16:54:09.878Z,2.03
2019-03-17T16:56:40.072Z,2.47
2019-03-17T16:59:43.862Z,9.67
2019-03-17T17:03:17.164Z,3.40
2019-03-17T17:06:47.611Z,2.17
2019-03-17T17:09:13.695Z,4.03
2019-03-17T17:11:55.320Z,2.13
2019-03-17T17:14:55.825Z,4.73
2019-03-17T17:18:08.285Z,2.37
2019-03-17T17:21:13.910Z,4.57
2019-03-17T17:23:40.427Z,5.10
2019-03-17T17:27:07.622Z,2.70
2019-03-17T17:30:44.183Z,3.07
2019-03-17T17:33:28.004Z,6.60
2019-03-17T17:35:58.452Z,3.10
2019-03-17T17:38:28.548Z,4.00
2019-03-17T17:40:58.522Z,2.43
2019-03-17T17:43:28.645Z,3.43
2019-03-17T17:45:58.842Z,2.47
2019-03-17T17:48:29.082Z,2.80
2019-03-17T17:50:59.223Z,3.07
2019-03-17T17:53:29.573Z,2.07
2019-03-17T17:55:59.600Z,2.77
2019-03-17T17:58:29.736Z,2.30
2019-03-17T18:00:59.832Z,2.57
2019-03-17T18:03:30.578Z,3.13
2019-03-17T18:06:03.303Z,3.73
2019-03-17T18:08:33.400Z,3.53
2019-03-17T18:11:03.646Z,3.53
2019-03-17T18:13:33.994Z,3.40
2019-03-17T18:16:04.110Z,3.40
2019-03-17T18:18:34.136Z,4.27
2019-03-17T18:21:04.217Z,3.40
2019-03-17T18:23:34.316Z,2.63
2019-03-17T18:26:04.386Z,3.07
2019-03-17T18:28:34.337Z,1.97
2019-03-17T18:31:04.229Z,2.20
2019-03-17T18:33:34.183Z,2.60
2019-03-17T18:36:04.282Z,1.80
2019-03-17T18:38:34.319Z,2.30
2019-03-17T18:41:04.804Z,2.53
2019-03-17T18:43:34.742Z,3.40
2019-03-17T18:46:06.934Z,2.43
2019-03-17T18:48:36.866Z,2.80
2019-03-17T18:51:06.886Z,3.40
2019-03-17T18:57:09.526Z,2.33
2019-03-17T18:59:39.489Z,2.33
2019-03-17T19:02:09.442Z,3.13
2019-03-17T19:04:39.339Z,2.17
2019-03-17T19:07:09.322Z,2.30
2019-03-17T19:13:11.386Z,2.70
2019-03-17T19:15:41.719Z,2.77
2019-03-17T19:18:11.675Z,2.33
2019-03-17T19:20:41.508Z,2.03
2019-03-17T19:23:11.410Z,3.57
2019-03-17T19:25:41.372Z,3.47
2019-03-17T19:28:11.390Z,3.60
2019-03-17T19:30:41.244Z,3.67
2019-03-17T19:33:11.235Z,3.60
2019-03-17T19:35:41.238Z,4.17
2019-03-17T19:38:11.303Z,3.00
2019-03-17T19:40:41.445Z,2.73
2019-03-17T19:43:11.375Z,2.87
2019-03-17T19:45:41.516Z,3.70
2019-03-17T19:48:11.699Z,2.83
2019-03-17T19:50:41.759Z,3.57
2019-03-17T19:53:11.864Z,3.57
2019-03-17T19:55:42.249Z,3.20
2019-03-17T19:58:12.371Z,4.23
2019-03-17T20:00:42.546Z,4.00
2019-03-17T20:03:12.434Z,4.70
2019-03-17T20:05:42.338Z,3.40
2019-03-17T20:08:12.376Z,3.40
2019-03-17T20:10:43.122Z,4.03
2019-03-17T20:13:13.190Z,4.20
2019-03-17T20:15:43.189Z,4.10
2019-03-17T20:18:13.141Z,3.67
2019-03-17T20:20:43.266Z,3.07
2019-03-17T20:23:13.098Z,3.87
2019-03-17T20:25:43.010Z,3.83
2019-03-17T20:28:13.338Z,3.77
2019-03-17T20:30:43.237Z,4.00
2019-03-17T20:33:13.168Z,3.63
2019-03-17T20:35:43.297Z,4.13
2019-03-17T20:42:19.001Z,5.00
2019-03-17T20:44:48.999Z,3.30
2019-03-17T20:47:18.850Z,3.50
2019-03-17T20:49:48.815Z,4.03
2019-03-17T20:52:18.886Z,4.00
2019-03-17T20:54:49.010Z,3.90
2019-03-17T20:57:18.800Z,3.73
2019-03-17T20:59:48.686Z,3.80
2019-03-17T21:02:18.601Z,3.77
2019-03-17T21:04:48.448Z,3.53
2019-03-17T21:07:18.418Z,3.83
2019-03-17T21:09:48.318Z,4.13
2019-03-17T21:12:18.149Z,4.37
2019-03-17T21:14:48.128Z,3.23
2019-03-17T21:17:18.169Z,4.60
2019-03-17T21:19:48.157Z,4.50
2019-03-17T21:22:17.961Z,2.87
2019-03-17T21:24:47.746Z,3.30
2019-03-17T21:27:17.679Z,5.20
2019-03-17T21:29:47.603Z,2.60
2019-03-17T21:32:17.543Z,3.40
2019-03-17T21:34:47.539Z,4.47
2019-03-17T21:37:17.593Z,3.10
2019-03-17T21:39:47.695Z,2.97
2019-03-17T21:42:17.705Z,1.73
2019-03-17T21:44:47.818Z,1.97
2019-03-17T21:47:17.818Z,2.07
2019-03-17T21:49:47.605Z,2.57
2019-03-17T21:52:17.743Z,2.20
2019-03-17T21:54:47.641Z,2.10
2019-03-17T21:57:17.489Z,2.00
2019-03-17T21:59:47.281Z,2.63
2019-03-17T22:02:17.539Z,2.07
2019-03-17T22:04:47.455Z,2.53
2019-03-17T22:07:17.389Z,2.33
2019-03-17T22:09:47.789Z,2.27
2019-03-17T22:12:17.571Z,2.07
2019-03-17T22:14:47.307Z,2.70
2019-03-17T22:17:17.239Z,1.67
2019-03-17T22:19:47.026Z,3.03
2019-03-17T22:22:17.048Z,2.50
2019-03-17T22:24:46.911Z,2.77
2019-03-17T22:27:16.665Z,2.30
2019-03-17T22:29:46.523Z,3.27
2019-03-17T22:32:16.307Z,2.70
2019-03-17T22:34:46.203Z,2.33
2019-03-17T22:37:15.981Z,2.80
2019-03-17T22:39:45.746Z,3.63
2019-03-17T22:42:15.545Z,2.20
2019-03-17T22:44:45.422Z,2.73
2019-03-17T22:47:15.688Z,2.03
2019-03-17T22:49:45.907Z,2.43
2019-03-17T22:52:15.861Z,2.77
2019-03-17T22:54:45.651Z,2.30
2019-03-17T22:57:15.678Z,2.97
2019-03-17T22:59:45.547Z,2.17
2019-03-17T23:02:15.375Z,2.67
2019-03-17T23:04:45.090Z,2.33
2019-03-17T23:07:15.063Z,2.53
2019-03-17T23:09:44.909Z,2.43
2019-03-17T23:12:14.613Z,2.47
2019-03-17T23:14:44.769Z,3.17
2019-03-17T23:17:14.860Z,2.33
2019-03-17T23:19:44.894Z,3.00
2019-03-17T23:22:14.836Z,2.63
2019-03-17T23:24:45.003Z,2.73
2019-03-17T23:27:14.939Z,2.17
2019-03-17T23:29:44.731Z,2.93
2019-03-17T23:32:14.559Z,2.50
2019-03-17T23:34:45.275Z,2.67
2019-03-17T23:37:15.224Z,2.97
2019-03-17T23:39:45.175Z,2.73
2019-03-17T23:42:14.982Z,2.90
2019-03-17T23:44:49.203Z,2.33
2019-03-17T23:47:19.306Z,3.10
2019-03-17T23:49:49.187Z,2.20
2019-03-17T23:52:19.208Z,2.63
2019-03-17T23:54:49.076Z,2.53
2019-03-17T23:57:18.876Z,2.77
2019-03-17T23:59:48.639Z,2.83
